sensor_id;sensor_type;location;lat;lon;timestamp;pressure;altitude;pressure_sealevel;temperature;humidity
50852;BME280;43953;45.508;-122.806;2023-03-22T00:00:05;99616.28;;;20.06;30.73
50852;BME280;43953;45.508;-122.806;2023-03-22T00:00:38;99616.28;;;20.06;30.82
50852;BME280;43953;45.508;-122.806;2023-03-22T00:01:12;99615.16;;;20.07;30.82
50852;BME280;43953;45.508;-122.806;2023-03-22T00:01:44;99619.50;;;20.08;30.86
50852;BME280;43953;45.508;-122.806;2023-03-22T00:02:16;99615.69;;;20.09;30.80
50852;BME280;43953;45.508;-122.806;2023-03-22T00:02:48;99626.31;;;20.10;31.12
50852;BME280;43953;45.508;-122.806;2023-03-22T00:03:20;99620.03;;;20.10;31.16
50852;BME280;43953;45.508;-122.806;2023-03-22T00:03:52;99615.09;;;20.12;30.96
50852;BME280;43953;45.508;-122.806;2023-03-22T00:04:24;99610.44;;;20.12;30.80
50852;BME280;43953;45.508;-122.806;2023-03-22T00:04:56;99621.66;;;20.11;30.87
50852;BME280;43953;45.508;-122.806;2023-03-22T00:05:28;99616.19;;;20.11;31.02
50852;BME280;43953;45.508;-122.806;2023-03-22T00:06:02;99607.97;;;20.11;31.01
50852;BME280;43953;45.508;-122.806;2023-03-22T00:06:34;99613.97;;;20.13;31.07
50852;BME280;43953;45.508;-122.806;2023-03-22T00:07:06;99618.84;;;20.16;31.09
50852;BME280;43953;45.508;-122.806;2023-03-22T00:07:38;99613.91;;;20.18;31.08
50852;BME280;43953;45.508;-122.806;2023-03-22T00:08:11;99622.59;;;20.20;31.08
50852;BME280;43953;45.508;-122.806;2023-03-22T00:08:44;99614.38;;;20.20;30.92
50852;BME280;43953;45.508;-122.806;2023-03-22T00:09:15;99626.97;;;20.21;30.96
50852;BME280;43953;45.508;-122.806;2023-03-22T00:09:47;99616.50;;;20.23;30.73
50852;BME280;43953;45.508;-122.806;2023-03-22T00:10:19;99612.97;;;20.22;30.58
50852;BME280;43953;45.508;-122.806;2023-03-22T00:10:51;99608.63;;;20.21;30.58
50852;BME280;43953;45.508;-122.806;2023-03-22T00:11:23;99616.84;;;20.21;30.43
50852;BME280;43953;45.508;-122.806;2023-03-22T00:11:55;99605.09;;;20.21;30.67
50852;BME280;43953;45.508;-122.806;2023-03-22T00:12:27;99608.03;;;20.25;30.77
50852;BME280;43953;45.508;-122.806;2023-03-22T00:12:59;99612.38;;;20.26;30.61
50852;BME280;43953;45.508;-122.806;2023-03-22T00:13:32;99619.97;;;20.29;30.71
50852;BME280;43953;45.508;-122.806;2023-03-22T00:14:04;99611.78;;;20.29;30.66
50852;BME280;43953;45.508;-122.806;2023-03-22T00:14:37;99612.28;;;20.31;30.58
50852;BME280;43953;45.508;-122.806;2023-03-22T00:15:09;99614.75;;;20.32;30.62
50852;BME280;43953;45.508;-122.806;2023-03-22T00:15:42;99613.63;;;20.33;30.55
50852;BME280;43953;45.508;-122.806;2023-03-22T00:16:15;99614.44;;;20.34;30.72
50852;BME280;43953;45.508;-122.806;2023-03-22T00:16:47;99610.56;;;20.35;30.62
50852;BME280;43953;45.508;-122.806;2023-03-22T00:17:19;99607.84;;;20.35;30.37
50852;BME280;43953;45.508;-122.806;2023-03-22T00:17:53;99607.56;;;20.36;30.50
50852;BME280;43953;45.508;-122.806;2023-03-22T00:18:25;99615.44;;;20.38;30.51
50852;BME280;43953;45.508;-122.806;2023-03-22T00:18:57;99606.13;;;20.39;30.45
50852;BME280;43953;45.508;-122.806;2023-03-22T00:19:29;99605.53;;;20.42;30.50
50852;BME280;43953;45.508;-122.806;2023-03-22T00:20:04;99604.13;;;20.44;30.32
50852;BME280;43953;45.508;-122.806;2023-03-22T00:20:46;99598.66;;;20.44;29.87
50852;BME280;43953;45.508;-122.806;2023-03-22T00:21:18;99594.00;;;20.45;30.33
50852;BME280;43953;45.508;-122.806;2023-03-22T00:21:50;99600.28;;;20.45;30.34
50852;BME280;43953;45.508;-122.806;2023-03-22T00:22:22;99599.16;;;20.46;30.66
50852;BME280;43953;45.508;-122.806;2023-03-22T00:22:54;99596.41;;;20.46;30.16
50852;BME280;43953;45.508;-122.806;2023-03-22T00:23:27;99608.19;;;20.47;30.23
50852;BME280;43953;45.508;-122.806;2023-03-22T00:23:59;99601.06;;;20.46;30.28
50852;BME280;43953;45.508;-122.806;2023-03-22T00:24:30;99598.06;;;20.48;30.33
50852;BME280;43953;45.508;-122.806;2023-03-22T00:25:03;99594.00;;;20.45;30.18
50852;BME280;43953;45.508;-122.806;2023-03-22T00:25:35;99591.25;;;20.45;30.32
50852;BME280;43953;45.508;-122.806;2023-03-22T00:26:08;99592.59;;;20.48;30.17
50852;BME280;43953;45.508;-122.806;2023-03-22T00:26:40;99594.19;;;20.49;30.33
50852;BME280;43953;45.508;-122.806;2023-03-22T00:27:12;99599.38;;;20.50;30.56
50852;BME280;43953;45.508;-122.806;2023-03-22T00:27:44;99597.44;;;20.51;30.41
50852;BME280;43953;45.508;-122.806;2023-03-22T00:28:16;99602.13;;;20.50;30.41
50852;BME280;43953;45.508;-122.806;2023-03-22T00:28:48;99594.72;;;20.51;30.50
50852;BME280;43953;45.508;-122.806;2023-03-22T00:29:19;99591.97;;;20.51;30.38
50852;BME280;43953;45.508;-122.806;2023-03-22T00:29:52;99590.47;;;20.44;30.29
50852;BME280;43953;45.508;-122.806;2023-03-22T00:30:24;99595.41;;;20.42;30.37
50852;BME280;43953;45.508;-122.806;2023-03-22T00:31:00;99596.00;;;20.39;30.32
50852;BME280;43953;45.508;-122.806;2023-03-22T00:31:32;99592.75;;;20.37;30.39
50852;BME280;43953;45.508;-122.806;2023-03-22T00:32:04;99587.00;;;20.39;30.46
50852;BME280;43953;45.508;-122.806;2023-03-22T00:32:37;99586.50;;;20.37;30.50
50852;BME280;43953;45.508;-122.806;2023-03-22T00:33:09;99593.38;;;20.34;30.56
50852;BME280;43953;45.508;-122.806;2023-03-22T00:33:40;99593.38;;;20.34;30.74
50852;BME280;43953;45.508;-122.806;2023-03-22T00:34:12;99596.63;;;20.36;30.41
50852;BME280;43953;45.508;-122.806;2023-03-22T00:34:44;99581.53;;;20.39;30.51
50852;BME280;43953;45.508;-122.806;2023-03-22T00:35:16;99592.16;;;20.40;30.15
50852;BME280;43953;45.508;-122.806;2023-03-22T00:35:57;99585.69;;;20.36;29.88
50852;BME280;43953;45.508;-122.806;2023-03-22T00:36:29;99597.75;;;20.35;30.14
50852;BME280;43953;45.508;-122.806;2023-03-22T00:37:01;99589.81;;;20.34;30.44
50852;BME280;43953;45.508;-122.806;2023-03-22T00:37:32;99590.13;;;20.32;30.15
50852;BME280;43953;45.508;-122.806;2023-03-22T00:38:04;99590.44;;;20.31;30.15
50852;BME280;43953;45.508;-122.806;2023-03-22T00:38:44;99590.22;;;20.27;30.18
50852;BME280;43953;45.508;-122.806;2023-03-22T00:39:16;99590.22;;;20.27;30.19
50852;BME280;43953;45.508;-122.806;2023-03-22T00:39:47;99584.31;;;20.20;30.26
50852;BME280;43953;45.508;-122.806;2023-03-22T00:40:19;99602.03;;;20.22;30.31
50852;BME280;43953;45.508;-122.806;2023-03-22T00:40:51;99595.56;;;20.18;30.21
50852;BME280;43953;45.508;-122.806;2023-03-22T00:41:23;99591.50;;;20.16;30.40
50852;BME280;43953;45.508;-122.806;2023-03-22T00:41:54;99587.97;;;20.15;30.58
50852;BME280;43953;45.508;-122.806;2023-03-22T00:42:26;99587.66;;;20.17;30.55
50852;BME280;43953;45.508;-122.806;2023-03-22T00:42:58;99592.53;;;20.20;30.84
50852;BME280;43953;45.508;-122.806;2023-03-22T00:43:30;99589.19;;;20.23;30.66
50852;BME280;43953;45.508;-122.806;2023-03-22T00:44:01;99592.44;;;20.25;30.54
50852;BME280;43953;45.508;-122.806;2023-03-22T00:44:33;99584.25;;;20.25;30.46
50852;BME280;43953;45.508;-122.806;2023-03-22T00:45:06;99583.94;;;20.27;30.56
50852;BME280;43953;45.508;-122.806;2023-03-22T00:45:39;99580.41;;;20.26;30.53
50852;BME280;43953;45.508;-122.806;2023-03-22T00:46:12;99581.41;;;20.30;30.39
50852;BME280;43953;45.508;-122.806;2023-03-22T00:46:44;99574.03;;;20.31;30.31
50852;BME280;43953;45.508;-122.806;2023-03-22T00:47:16;99584.66;;;20.32;30.32
50852;BME280;43953;45.508;-122.806;2023-03-22T00:47:47;99594.16;;;20.35;30.21
50852;BME280;43953;45.508;-122.806;2023-03-22T00:48:19;99586.50;;;20.37;30.07
50852;BME280;43953;45.508;-122.806;2023-03-22T00:48:51;99584.56;;;20.37;29.98
50852;BME280;43953;45.508;-122.806;2023-03-22T00:49:22;99588.41;;;20.36;29.99
50852;BME280;43953;45.508;-122.806;2023-03-22T00:49:55;99582.94;;;20.36;29.98
50852;BME280;43953;45.508;-122.806;2023-03-22T00:50:27;99585.69;;;20.36;30.08
50852;BME280;43953;45.508;-122.806;2023-03-22T00:50:59;99590.03;;;20.37;30.10
50852;BME280;43953;45.508;-122.806;2023-03-22T00:51:31;99583.47;;;20.38;30.04
50852;BME280;43953;45.508;-122.806;2023-03-22T00:52:03;99581.81;;;20.37;29.83
50852;BME280;43953;45.508;-122.806;2023-03-22T00:52:34;99582.63;;;20.38;30.05
50852;BME280;43953;45.508;-122.806;2023-03-22T00:53:06;99588.09;;;20.38;29.83
50852;BME280;43953;45.508;-122.806;2023-03-22T00:53:38;99578.59;;;20.35;30.11
50852;BME280;43953;45.508;-122.806;2023-03-22T00:54:10;99573.75;;;20.32;30.14
50852;BME280;43953;45.508;-122.806;2023-03-22T00:54:42;99582.03;;;20.27;30.12
50852;BME280;43953;45.508;-122.806;2023-03-22T00:55:14;99583.44;;;20.25;30.16
50852;BME280;43953;45.508;-122.806;2023-03-22T00:55:46;99581.59;;;20.20;30.02
50852;BME280;43953;45.508;-122.806;2023-03-22T00:56:17;99580.56;;;20.16;30.21
50852;BME280;43953;45.508;-122.806;2023-03-22T00:56:49;99586.72;;;20.08;30.08
50852;BME280;43953;45.508;-122.806;2023-03-22T00:57:21;99584.97;;;19.98;30.53
50852;BME280;43953;45.508;-122.806;2023-03-22T00:57:53;99576.25;;;19.96;30.62
50852;BME280;43953;45.508;-122.806;2023-03-22T00:58:25;99579.31;;;19.94;30.44
50852;BME280;43953;45.508;-122.806;2023-03-22T00:58:57;99579.31;;;19.94;30.47
50852;BME280;43953;45.508;-122.806;2023-03-22T00:59:28;99581.00;;;19.90;30.25
50852;BME280;43953;45.508;-122.806;2023-03-22T01:00:00;99581.69;;;19.82;30.65
50852;BME280;43953;45.508;-122.806;2023-03-22T01:00:47;99580.66;;;19.78;30.79
50852;BME280;43953;45.508;-122.806;2023-03-22T01:01:18;99578.25;;;19.76;30.55
50852;BME280;43953;45.508;-122.806;2023-03-22T01:01:50;99578.53;;;19.75;30.25
50852;BME280;43953;45.508;-122.806;2023-03-22T01:02:22;99576.91;;;19.74;30.53
50852;BME280;43953;45.508;-122.806;2023-03-22T01:03:00;99578.03;;;19.73;30.65
50852;BME280;43953;45.508;-122.806;2023-03-22T01:03:34;99581.25;;;19.75;30.92
50852;BME280;43953;45.508;-122.806;2023-03-22T01:04:06;99572.78;;;19.76;31.20
50852;BME280;43953;45.508;-122.806;2023-03-22T01:04:42;99579.03;;;19.77;31.00
50852;BME280;43953;45.508;-122.806;2023-03-22T01:05:18;99576.31;;;19.77;30.96
50852;BME280;43953;45.508;-122.806;2023-03-22T01:05:52;99570.84;;;19.77;31.28
50852;BME280;43953;45.508;-122.806;2023-03-22T01:06:26;99579.56;;;19.79;31.39
50852;BME280;43953;45.508;-122.806;2023-03-22T01:06:58;99572.19;;;19.80;31.43
50852;BME280;43953;45.508;-122.806;2023-03-22T01:07:32;99570.25;;;19.80;31.33
50852;BME280;43953;45.508;-122.806;2023-03-22T01:08:04;99576.84;;;19.79;30.75
50852;BME280;43953;45.508;-122.806;2023-03-22T01:08:39;99573.06;;;19.75;30.83
50852;BME280;43953;45.508;-122.806;2023-03-22T01:09:11;99578.84;;;19.73;30.84
50852;BME280;43953;45.508;-122.806;2023-03-22T01:09:45;99582.97;;;19.71;30.82
50852;BME280;43953;45.508;-122.806;2023-03-22T01:10:17;99579.72;;;19.69;30.91
50852;BME280;43953;45.508;-122.806;2023-03-22T01:10:49;99579.72;;;19.69;31.10
50852;BME280;43953;45.508;-122.806;2023-03-22T01:11:21;99575.88;;;19.70;31.13
50852;BME280;43953;45.508;-122.806;2023-03-22T01:11:57;99578.59;;;19.70;31.12
50852;BME280;43953;45.508;-122.806;2023-03-22T01:12:29;99571.53;;;19.69;30.99
50852;BME280;43953;45.508;-122.806;2023-03-22T01:13:00;99580.84;;;19.68;31.18
50852;BME280;43953;45.508;-122.806;2023-03-22T01:13:34;99569.91;;;19.68;31.08
50852;BME280;43953;45.508;-122.806;2023-03-22T01:14:07;99571.00;;;19.67;31.17
50852;BME280;43953;45.508;-122.806;2023-03-22T01:14:39;99579.19;;;19.67;31.23
50852;BME280;43953;45.508;-122.806;2023-03-22T01:15:11;99569.91;;;19.68;31.14
50852;BME280;43953;45.508;-122.806;2023-03-22T01:15:43;99572.63;;;19.68;31.18
50852;BME280;43953;45.508;-122.806;2023-03-22T01:16:16;99580.03;;;19.67;31.15
50852;BME280;43953;45.508;-122.806;2023-03-22T01:16:47;99575.97;;;19.65;30.93
50852;BME280;43953;45.508;-122.806;2023-03-22T01:17:19;99566.19;;;19.59;31.09
50852;BME280;43953;45.508;-122.806;2023-03-22T01:17:52;99582.66;;;19.53;31.36
50852;BME280;43953;45.508;-122.806;2023-03-22T01:18:23;99583.78;;;19.52;31.45
50852;BME280;43953;45.508;-122.806;2023-03-22T01:18:55;99578.31;;;19.52;31.39
50852;BME280;43953;45.508;-122.806;2023-03-22T01:19:27;99585.66;;;19.52;31.68
50852;BME280;43953;45.508;-122.806;2023-03-22T01:19:59;99575.84;;;19.51;31.63
50852;BME280;43953;45.508;-122.806;2023-03-22T01:20:31;99576.66;;;19.51;31.47
50852;BME280;43953;45.508;-122.806;2023-03-22T01:21:03;99572.84;;;19.52;31.39
50852;BME280;43953;45.508;-122.806;2023-03-22T01:21:35;99575.06;;;19.50;31.32
50852;BME280;43953;45.508;-122.806;2023-03-22T01:22:07;99575.06;;;19.50;31.42
50852;BME280;43953;45.508;-122.806;2023-03-22T01:22:39;99573.44;;;19.49;31.53
50852;BME280;43953;45.508;-122.806;2023-03-22T01:23:11;99575.66;;;19.47;31.72
50852;BME280;43953;45.508;-122.806;2023-03-22T01:23:42;99566.66;;;19.47;31.67
50852;BME280;43953;45.508;-122.806;2023-03-22T01:24:14;99574.03;;;19.46;31.80
50852;BME280;43953;45.508;-122.806;2023-03-22T01:24:48;99575.44;;;19.44;31.67
50852;BME280;43953;45.508;-122.806;2023-03-22T01:25:20;99579.25;;;19.43;31.71
50852;BME280;43953;45.508;-122.806;2023-03-22T01:25:51;99572.97;;;19.42;31.67
50852;BME280;43953;45.508;-122.806;2023-03-22T01:26:23;99579.84;;;19.40;31.73
50852;BME280;43953;45.508;-122.806;2023-03-22T01:26:55;99585.41;;;19.35;31.60
50852;BME280;43953;45.508;-122.806;2023-03-22T01:27:27;99573.94;;;19.32;31.84
50852;BME280;43953;45.508;-122.806;2023-03-22T01:27:59;99580.81;;;19.30;31.92
50852;BME280;43953;45.508;-122.806;2023-03-22T01:28:32;99585.25;;;19.26;31.88
50852;BME280;43953;45.508;-122.806;2023-03-22T01:29:04;99585.00;;;19.22;31.69
50852;BME280;43953;45.508;-122.806;2023-03-22T01:29:36;99578.22;;;19.20;31.82
50852;BME280;43953;45.508;-122.806;2023-03-22T01:30:08;99573.63;;;19.15;31.89
50852;BME280;43953;45.508;-122.806;2023-03-22T01:30:41;99580.81;;;19.11;32.26
50852;BME280;43953;45.508;-122.806;2023-03-22T01:31:12;99579.47;;;19.08;32.13
50852;BME280;43953;45.508;-122.806;2023-03-22T01:31:44;99578.41;;;19.04;32.41
50852;BME280;43953;45.508;-122.806;2023-03-22T01:32:16;99587.47;;;19.00;32.31
50852;BME280;43953;45.508;-122.806;2023-03-22T01:32:47;99583.41;;;18.97;32.40
50852;BME280;43953;45.508;-122.806;2023-03-22T01:33:19;99584.00;;;18.94;32.49
50852;BME280;43953;45.508;-122.806;2023-03-22T01:33:51;99578.34;;;18.91;32.63
50852;BME280;43953;45.508;-122.806;2023-03-22T01:34:23;99588.97;;;18.87;32.39
50852;BME280;43953;45.508;-122.806;2023-03-22T01:34:54;99592.28;;;18.84;32.72
50852;BME280;43953;45.508;-122.806;2023-03-22T01:35:26;99588.75;;;18.83;32.73
50852;BME280;43953;45.508;-122.806;2023-03-22T01:35:58;99592.59;;;18.82;32.76
50852;BME280;43953;45.508;-122.806;2023-03-22T01:36:29;99589.06;;;18.82;32.87
50852;BME280;43953;45.508;-122.806;2023-03-22T01:37:01;99584.69;;;18.81;33.08
50852;BME280;43953;45.508;-122.806;2023-03-22T01:37:33;99588.25;;;18.81;32.91
50852;BME280;43953;45.508;-122.806;2023-03-22T01:38:04;99590.16;;;18.81;33.07
50852;BME280;43953;45.508;-122.806;2023-03-22T01:38:36;99590.16;;;18.81;33.09
50852;BME280;43953;45.508;-122.806;2023-03-22T01:39:07;99588.53;;;18.80;33.12
50852;BME280;43953;45.508;-122.806;2023-03-22T01:39:39;99597.84;;;18.79;33.13
50852;BME280;43953;45.508;-122.806;2023-03-22T01:40:13;99586.94;;;18.79;33.02
50852;BME280;43953;45.508;-122.806;2023-03-22T01:40:45;99595.38;;;18.77;33.28
50852;BME280;43953;45.508;-122.806;2023-03-22T01:41:17;99597.84;;;18.79;33.27
50852;BME280;43953;45.508;-122.806;2023-03-22T01:41:48;99597.03;;;18.78;33.16
50852;BME280;43953;45.508;-122.806;2023-03-22T01:42:21;99590.72;;;18.78;33.25
50852;BME280;43953;45.508;-122.806;2023-03-22T01:42:54;99593.47;;;18.78;33.22
50852;BME280;43953;45.508;-122.806;2023-03-22T01:43:26;99596.50;;;18.76;33.17
50852;BME280;43953;45.508;-122.806;2023-03-22T01:44:41;99601.69;;;18.73;33.38
50852;BME280;43953;45.508;-122.806;2023-03-22T01:45:50;99592.44;;;18.69;33.35
50852;BME280;43953;45.508;-122.806;2023-03-22T01:46:22;99600.94;;;18.67;33.00
50852;BME280;43953;45.508;-122.806;2023-03-22T01:46:53;99600.72;;;18.63;33.53
50852;BME280;43953;45.508;-122.806;2023-03-22T01:47:34;99597.22;;;18.58;32.99
50852;BME280;43953;45.508;-122.806;2023-03-22T01:49:05;99602.19;;;18.51;33.75
50852;BME280;43953;45.508;-122.806;2023-03-22T01:49:39;99594.31;;;18.49;33.52
50852;BME280;43953;45.508;-122.806;2023-03-22T01:50:11;99594.59;;;18.48;33.60
50852;BME280;43953;45.508;-122.806;2023-03-22T01:51:04;99602.22;;;18.46;33.95
50852;BME280;43953;45.508;-122.806;2023-03-22T01:51:38;99597.09;;;18.44;33.98
50852;BME280;43953;45.508;-122.806;2023-03-22T01:52:12;99590.81;;;18.44;33.72
50852;BME280;43953;45.508;-122.806;2023-03-22T01:52:45;99588.38;;;18.42;33.36
50852;BME280;43953;45.508;-122.806;2023-03-22T01:53:17;99593.31;;;18.40;33.56
50852;BME280;43953;45.508;-122.806;2023-03-22T01:54:06;99599.84;;;18.39;34.07
50852;BME280;43953;45.508;-122.806;2023-03-22T01:54:46;99591.16;;;18.37;34.17
50852;BME280;43953;45.508;-122.806;2023-03-22T01:55:19;99591.75;;;18.34;33.85
50852;BME280;43953;45.508;-122.806;2023-03-22T01:55:54;99600.19;;;18.32;33.84
50852;BME280;43953;45.508;-122.806;2023-03-22T01:56:30;99599.38;;;18.32;33.89
50852;BME280;43953;45.508;-122.806;2023-03-22T01:57:02;99593.41;;;18.30;33.71
50852;BME280;43953;45.508;-122.806;2023-03-22T01:57:35;99599.44;;;18.27;33.68
50852;BME280;43953;45.508;-122.806;2023-03-22T01:58:10;99597.28;;;18.24;33.93
50852;BME280;43953;45.508;-122.806;2023-03-22T01:58:41;99597.59;;;18.22;34.02
50852;BME280;43953;45.508;-122.806;2023-03-22T01:59:14;99592.41;;;18.21;33.86
50852;BME280;43953;45.508;-122.806;2023-03-22T01:59:46;99600.03;;;18.18;34.00
50852;BME280;43953;45.508;-122.806;2023-03-22T02:00:24;99599.78;;;18.20;34.02
50852;BME280;43953;45.508;-122.806;2023-03-22T02:00:55;99597.03;;;18.20;33.83
50852;BME280;43953;45.508;-122.806;2023-03-22T02:01:27;99604.69;;;18.18;33.83
50852;BME280;43953;45.508;-122.806;2023-03-22T02:02:00;99602.25;;;18.16;33.86
50852;BME280;43953;45.508;-122.806;2023-03-22T02:02:33;99599.00;;;18.14;33.87
50852;BME280;43953;45.508;-122.806;2023-03-22T02:03:05;99599.56;;;18.11;33.94
50852;BME280;43953;45.508;-122.806;2023-03-22T02:03:58;99600.69;;;18.10;33.77
50852;BME280;43953;45.508;-122.806;2023-03-22T02:04:34;99602.63;;;18.05;34.50
50852;BME280;43953;45.508;-122.806;2023-03-22T02:05:09;99602.63;;;18.05;34.17
50852;BME280;43953;45.508;-122.806;2023-03-22T02:05:43;99600.47;;;18.02;34.16
50852;BME280;43953;45.508;-122.806;2023-03-22T02:06:16;99602.94;;;17.98;34.19
50852;BME280;43953;45.508;-122.806;2023-03-22T02:06:50;99597.00;;;17.96;34.19
50852;BME280;43953;45.508;-122.806;2023-03-22T02:07:24;99603.50;;;17.95;34.45
50852;BME280;43953;45.508;-122.806;2023-03-22T02:07:59;99603.00;;;17.93;34.80
50852;BME280;43953;45.508;-122.806;2023-03-22T02:08:31;99602.19;;;17.92;34.83
50852;BME280;43953;45.508;-122.806;2023-03-22T02:09:05;99606.00;;;17.91;34.85
50852;BME280;43953;45.508;-122.806;2023-03-22T02:09:38;99607.91;;;17.91;34.71
50852;BME280;43953;45.508;-122.806;2023-03-22T02:10:17;99606.28;;;17.90;34.91
50852;BME280;43953;45.508;-122.806;2023-03-22T02:10:50;99604.16;;;17.87;34.74
50852;BME280;43953;45.508;-122.806;2023-03-22T02:11:28;99598.72;;;17.82;34.64
50852;BME280;43953;45.508;-122.806;2023-03-22T02:12:13;99597.38;;;17.79;34.64
50852;BME280;43953;45.508;-122.806;2023-03-22T02:14:56;99609.91;;;17.75;35.10
50852;BME280;43953;45.508;-122.806;2023-03-22T02:15:51;99597.94;;;17.71;35.07
50852;BME280;43953;45.508;-122.806;2023-03-22T02:17:51;99597.16;;;17.65;35.02
50852;BME280;43953;45.508;-122.806;2023-03-22T02:27:21;99612.09;;;17.34;35.69
50852;BME280;43953;45.508;-122.806;2023-03-22T02:35:25;99608.84;;;17.21;35.32
50852;BME280;43953;45.508;-122.806;2023-03-22T02:36:15;99621.97;;;17.14;35.64
50852;BME280;43953;45.508;-122.806;2023-03-22T02:38:40;99635.31;;;17.05;35.83
50852;BME280;43953;45.508;-122.806;2023-03-22T02:39:28;99624.47;;;17.00;35.89
50852;BME280;43953;45.508;-122.806;2023-03-22T02:43:50;99630.97;;;17.04;36.34
50852;BME280;43953;45.508;-122.806;2023-03-22T02:44:39;99632.34;;;17.02;35.95
50852;BME280;43953;45.508;-122.806;2023-03-22T02:45:23;99628.00;;;17.01;35.76
50852;BME280;43953;45.508;-122.806;2023-03-22T02:46:05;99630.44;;;16.97;35.95
50852;BME280;43953;45.508;-122.806;2023-03-22T02:46:44;99632.09;;;16.98;35.93
50852;BME280;43953;45.508;-122.806;2023-03-22T02:47:26;99638.09;;;16.95;36.01
50852;BME280;43953;45.508;-122.806;2023-03-22T02:48:16;99632.91;;;16.94;36.14
50852;BME280;43953;45.508;-122.806;2023-03-22T02:48:56;99629.66;;;16.92;35.69
50852;BME280;43953;45.508;-122.806;2023-03-22T02:51:30;99629.97;;;16.80;36.30
50852;BME280;43953;45.508;-122.806;2023-03-22T02:53:56;99632.41;;;16.76;36.62
50852;BME280;43953;45.508;-122.806;2023-03-22T02:54:42;99630.78;;;16.70;36.54
50852;BME280;43953;45.508;-122.806;2023-03-22T02:56:39;99628.34;;;16.69;36.62
50852;BME280;43953;45.508;-122.806;2023-03-22T02:58:26;99622.91;;;16.64;36.64
50852;BME280;43953;45.508;-122.806;2023-03-22T02:59:02;99631.06;;;16.64;36.75
50852;BME280;43953;45.508;-122.806;2023-03-22T02:59:36;99632.97;;;16.63;36.47
50852;BME280;43953;45.508;-122.806;2023-03-22T03:00:10;99630.25;;;16.63;36.33
50852;BME280;43953;45.508;-122.806;2023-03-22T03:00:45;99627.56;;;16.58;36.35
50852;BME280;43953;45.508;-122.806;2023-03-22T03:01:32;99633.53;;;16.55;36.28
50852;BME280;43953;45.508;-122.806;2023-03-22T03:02:10;99634.91;;;16.52;36.58
50852;BME280;43953;45.508;-122.806;2023-03-22T03:02:48;99636.25;;;16.50;36.63
50852;BME280;43953;45.508;-122.806;2023-03-22T03:03:21;99639.78;;;16.50;36.95
50852;BME280;43953;45.508;-122.806;2023-03-22T03:04:01;99642.50;;;16.50;37.01
50852;BME280;43953;45.508;-122.806;2023-03-22T03:04:42;99633.03;;;16.48;37.04
50852;BME280;43953;45.508;-122.806;2023-03-22T03:05:16;99636.81;;;16.47;36.94
50852;BME280;43953;45.508;-122.806;2023-03-22T03:05:53;99643.88;;;16.48;36.83
50852;BME280;43953;45.508;-122.806;2023-03-22T03:06:28;99639.53;;;16.47;36.82
50852;BME280;43953;45.508;-122.806;2023-03-22T03:07:08;99643.88;;;16.48;37.01
50852;BME280;43953;45.508;-122.806;2023-03-22T03:07:47;99645.25;;;16.45;37.06
50852;BME280;43953;45.508;-122.806;2023-03-22T03:08:21;99636.28;;;16.45;37.02
50852;BME280;43953;45.508;-122.806;2023-03-22T03:08:54;99641.97;;;16.43;36.96
50852;BME280;43953;45.508;-122.806;2023-03-22T03:09:28;99647.69;;;16.42;37.04
50852;BME280;43953;45.508;-122.806;2023-03-22T03:10:00;99647.16;;;16.40;37.14
50852;BME280;43953;45.508;-122.806;2023-03-22T03:10:33;99646.84;;;16.41;37.06
50852;BME280;43953;45.508;-122.806;2023-03-22T03:11:07;99646.59;;;16.43;36.86
50852;BME280;43953;45.508;-122.806;2023-03-22T03:11:39;99647.16;;;16.40;36.99
50852;BME280;43953;45.508;-122.806;2023-03-22T03:12:20;99643.63;;;16.39;37.27
50852;BME280;43953;45.508;-122.806;2023-03-22T03:12:52;99640.91;;;16.39;37.10
50852;BME280;43953;45.508;-122.806;2023-03-22T03:13:23;99650.94;;;16.38;37.10
50852;BME280;43953;45.508;-122.806;2023-03-22T03:13:55;99646.59;;;16.37;37.08
50852;BME280;43953;45.508;-122.806;2023-03-22T03:14:31;99646.59;;;16.37;36.75
50852;BME280;43953;45.508;-122.806;2023-03-22T03:15:15;99653.94;;;16.37;37.00
50852;BME280;43953;45.508;-122.806;2023-03-22T03:15:54;99647.44;;;16.33;37.02
50852;BME280;43953;45.508;-122.806;2023-03-22T03:16:29;99655.56;;;16.28;36.81
50852;BME280;43953;45.508;-122.806;2023-03-22T03:19:19;99652.56;;;16.09;37.69
50852;BME280;43953;45.508;-122.806;2023-03-22T03:20:09;99650.69;;;16.04;37.59
50852;BME280;43953;45.508;-122.806;2023-03-22T03:20:57;99652.03;;;16.02;37.76
50852;BME280;43953;45.508;-122.806;2023-03-22T03:23:46;99650.97;;;15.98;38.20
50852;BME280;43953;45.508;-122.806;2023-03-22T03:24:45;99644.16;;;15.95;37.82
50852;BME280;43953;45.508;-122.806;2023-03-22T03:26:38;99646.31;;;15.88;38.25
50852;BME280;43953;45.508;-122.806;2023-03-22T03:27:19;99648.75;;;15.84;38.27
50852;BME280;43953;45.508;-122.806;2023-03-22T03:28:18;99650.94;;;15.87;38.05
50852;BME280;43953;45.508;-122.806;2023-03-22T03:29:08;99648.78;;;15.89;38.11
50852;BME280;43953;45.508;-122.806;2023-03-22T03:30:23;99646.06;;;15.89;38.33
50852;BME280;43953;45.508;-122.806;2023-03-22T03:33:33;99653.13;;;15.90;38.00
50852;BME280;43953;45.508;-122.806;2023-03-22T03:35:20;99654.22;;;15.89;38.18
50852;BME280;43953;45.508;-122.806;2023-03-22T03:36:00;99650.94;;;15.87;38.00
50852;BME280;43953;45.508;-122.806;2023-03-22T03:36:33;99653.94;;;15.86;38.12
50852;BME280;43953;45.508;-122.806;2023-03-22T03:37:12;99653.38;;;15.84;38.10
50852;BME280;43953;45.508;-122.806;2023-03-22T03:37:51;99644.44;;;15.83;38.41
50852;BME280;43953;45.508;-122.806;2023-03-22T03:38:30;99653.63;;;15.82;38.36
50852;BME280;43953;45.508;-122.806;2023-03-22T03:39:07;99655.28;;;15.78;38.27